createdAt,value
2022-11-29T00:00:35.193Z,43.2
2022-11-29T00:02:34.845Z,19.2
2022-11-29T00:04:34.692Z,21.8
2022-11-29T00:06:34.844Z,30.0
2022-11-29T00:08:34.028Z,68.1
2022-11-29T00:10:35.798Z,22.0
2022-11-29T00:12:32.694Z,17.5
2022-11-29T00:14:32.289Z,16.5
2022-11-29T00:16:32.479Z,16.9
2022-11-29T00:18:32.284Z,17.1
2022-11-29T00:20:32.181Z,16.1
2022-11-29T00:22:30.873Z,16.0
2022-11-29T00:24:31.520Z,15.8
2022-11-29T00:28:30.193Z,17.2
2022-11-29T00:30:30.026Z,14.8
2022-11-29T00:32:28.834Z,15.6
2022-11-29T00:34:28.630Z,15.1
2022-11-29T00:36:29.939Z,15.6
2022-11-29T00:38:27.694Z,13.2
2022-11-29T00:40:27.309Z,13.6
2022-11-29T00:42:27.056Z,13.8
2022-11-29T00:48:26.096Z,14.2
2022-11-29T00:50:25.883Z,15.4
2022-11-29T00:52:25.508Z,14.7
2022-11-29T00:54:25.671Z,15.7
2022-11-29T00:56:24.699Z,15.5
2022-11-29T00:58:24.002Z,15.4
2022-11-29T01:00:23.934Z,15.9
2022-11-29T01:04:22.799Z,14.7
2022-11-29T01:06:22.672Z,14.9
2022-11-29T01:10:21.940Z,15.6
2022-11-29T01:14:21.328Z,15.1
2022-11-29T01:16:21.336Z,15.7
2022-11-29T01:18:20.256Z,14.9
2022-11-29T01:20:20.839Z,14.5
2022-11-29T01:22:19.257Z,14.4
2022-11-29T01:24:21.172Z,14.8
2022-11-29T01:26:21.940Z,15.2
2022-11-29T01:28:17.986Z,14.0
2022-11-29T01:30:17.830Z,13.9
2022-11-29T01:32:17.588Z,14.1
2022-11-29T01:34:16.786Z,15.8
2022-11-29T01:36:16.499Z,16.1
2022-11-29T01:38:16.615Z,14.6
2022-11-29T01:40:16.111Z,15.5
2022-11-29T01:42:15.235Z,14.9
2022-11-29T01:44:34.492Z,15.3
2022-11-29T01:46:14.351Z,14.8
2022-11-29T01:48:14.066Z,15.0
2022-11-29T01:50:14.262Z,14.1
2022-11-29T01:52:16.936Z,14.4
2022-11-29T01:54:13.705Z,14.7
2022-11-29T01:56:14.461Z,14.4
2022-11-29T01:58:13.320Z,13.1
2022-11-29T02:00:14.493Z,12.0
2022-11-29T02:02:15.145Z,12.9
2022-11-29T02:04:11.622Z,13.3
2022-11-29T02:06:10.477Z,14.5
2022-11-29T02:10:10.103Z,15.5
2022-11-29T02:12:19.582Z,14.8
2022-11-29T02:14:22.078Z,13.8
2022-11-29T02:18:11.438Z,14.4
2022-11-29T02:20:27.247Z,13.3
2022-11-29T02:22:13.378Z,12.5
2022-11-29T02:24:26.647Z,13.3
2022-11-29T02:26:17.618Z,13.4
2022-11-29T02:28:25.418Z,13.8
2022-11-29T02:30:17.801Z,14.2
2022-11-29T02:32:24.596Z,14.1
2022-11-29T02:34:24.179Z,13.7
2022-11-29T02:36:17.520Z,14.6
2022-11-29T02:38:18.004Z,14.1
2022-11-29T02:40:20.046Z,13.4
2022-11-29T02:42:22.517Z,14.0
2022-11-29T02:44:21.507Z,15.2
2022-11-29T02:46:09.674Z,13.7
2022-11-29T02:48:14.637Z,14.0
2022-11-29T02:50:18.242Z,13.5
2022-11-29T02:52:03.964Z,14.1
2022-11-29T02:54:07.398Z,13.7
2022-11-29T02:56:10.087Z,14.2
2022-11-29T02:58:08.703Z,14.0
2022-11-29T03:00:04.100Z,13.4
2022-11-29T03:02:08.774Z,13.2
2022-11-29T03:04:05.970Z,14.3
2022-11-29T03:06:11.089Z,13.8
2022-11-29T03:10:04.316Z,14.0
2022-11-29T03:12:07.070Z,13.4
2022-11-29T03:14:10.076Z,14.1
2022-11-29T03:16:02.912Z,13.5
2022-11-29T03:18:07.808Z,15.8
2022-11-29T03:20:05.484Z,15.5
2022-11-29T03:22:06.557Z,15.4
2022-11-29T03:23:58.018Z,15.3
2022-11-29T03:26:00.848Z,21.5
2022-11-29T03:28:00.888Z,14.8
2022-11-29T03:29:57.203Z,15.5
2022-11-29T03:32:00.091Z,13.6
2022-11-29T03:33:59.840Z,13.3
2022-11-29T03:36:00.142Z,13.6
2022-11-29T03:37:58.095Z,13.0
2022-11-29T03:39:55.676Z,12.4
2022-11-29T03:41:58.279Z,12.6
2022-11-29T03:43:56.229Z,11.6
2022-11-29T03:45:57.745Z,13.8
2022-11-29T03:47:55.603Z,13.7
2022-11-29T03:49:53.561Z,12.5
2022-11-29T03:51:58.180Z,12.2
2022-11-29T03:53:53.604Z,12.4
2022-11-29T03:55:53.694Z,13.0
2022-11-29T03:57:57.851Z,12.1
2022-11-29T03:59:55.091Z,11.4
2022-11-29T04:02:05.294Z,12.6
2022-11-29T04:04:04.897Z,12.3
2022-11-29T04:06:02.725Z,12.9
2022-11-29T04:07:57.233Z,13.5
2022-11-29T04:10:02.371Z,13.6
2022-11-29T04:11:59.095Z,13.3
2022-11-29T04:13:58.745Z,12.9
2022-11-29T04:16:02.560Z,13.0
2022-11-29T04:18:00.836Z,12.6
2022-11-29T04:19:59.227Z,12.4
2022-11-29T04:21:59.125Z,12.1
2022-11-29T04:23:54.680Z,12.2
2022-11-29T04:26:00.667Z,12.4
2022-11-29T04:27:48.548Z,11.5
2022-11-29T04:29:59.417Z,10.5
2022-11-29T04:31:55.808Z,11.2
2022-11-29T04:33:59.221Z,12.2
2022-11-29T04:35:52.625Z,11.8
2022-11-29T04:37:57.506Z,11.7
2022-11-29T04:39:55.978Z,11.8
2022-11-29T04:41:56.818Z,12.6
2022-11-29T04:45:48.371Z,12.7
2022-11-29T04:47:51.225Z,12.4
2022-11-29T04:49:52.131Z,12.0
2022-11-29T04:53:49.536Z,12.3
2022-11-29T04:55:43.242Z,11.6
2022-11-29T04:57:39.458Z,11.8
2022-11-29T04:59:41.788Z,12.3
2022-11-29T05:01:45.217Z,12.0
2022-11-29T05:03:38.000Z,12.6
2022-11-29T05:05:41.069Z,12.4
2022-11-29T05:09:40.910Z,12.3
2022-11-29T05:11:42.673Z,12.0
2022-11-29T05:13:39.862Z,11.5
2022-11-29T05:15:47.918Z,12.7
2022-11-29T05:17:37.553Z,11.9
2022-11-29T05:19:44.963Z,12.0
2022-11-29T05:21:41.562Z,12.3
2022-11-29T05:23:44.657Z,11.8
2022-11-29T05:25:39.216Z,12.2
2022-11-29T05:27:40.859Z,13.3
2022-11-29T05:29:35.116Z,13.0
2022-11-29T05:31:45.794Z,13.4
2022-11-29T05:33:45.960Z,12.8
2022-11-29T05:35:40.142Z,12.9
2022-11-29T05:37:37.510Z,13.2
2022-11-29T05:39:36.333Z,12.8
2022-11-29T05:41:41.368Z,11.8
2022-11-29T05:43:42.314Z,10.8
2022-11-29T05:45:28.396Z,10.9
2022-11-29T05:47:31.748Z,11.6
2022-11-29T05:49:33.384Z,12.2
2022-11-29T05:51:36.098Z,13.2
2022-11-29T05:53:27.536Z,12.2
2022-11-29T05:55:32.623Z,11.4
2022-11-29T05:57:31.133Z,12.8
2022-11-29T05:59:26.236Z,12.9
2022-11-29T06:01:23.813Z,13.0
2022-11-29T06:03:29.298Z,13.6
2022-11-29T06:05:28.912Z,13.7
2022-11-29T06:07:25.839Z,13.6
2022-11-29T06:09:26.465Z,13.8
2022-11-29T06:11:23.320Z,13.0
2022-11-29T06:13:24.601Z,13.7
2022-11-29T06:15:37.635Z,13.0
2022-11-29T06:17:39.300Z,12.8
2022-11-29T06:19:30.133Z,13.2
2022-11-29T06:21:29.832Z,13.0
2022-11-29T06:25:35.138Z,14.4
2022-11-29T06:27:34.320Z,14.1
2022-11-29T06:29:22.929Z,13.7
2022-11-29T06:31:20.230Z,13.8
2022-11-29T06:33:21.758Z,14.3
2022-11-29T06:35:33.632Z,13.5
2022-11-29T06:37:19.186Z,14.3
2022-11-29T06:39:13.653Z,13.5
2022-11-29T06:41:17.819Z,14.1
2022-11-29T06:43:12.890Z,14.9
2022-11-29T06:45:13.509Z,14.0
2022-11-29T06:47:18.419Z,14.2
2022-11-29T06:49:17.478Z,14.5
2022-11-29T06:51:19.716Z,14.4
2022-11-29T06:53:18.682Z,14.1
2022-11-29T06:55:17.528Z,13.7
2022-11-29T06:57:18.899Z,13.9
2022-11-29T06:59:23.500Z,14.3
2022-11-29T07:01:19.307Z,13.6
2022-11-29T07:03:24.596Z,13.7
2022-11-29T07:05:19.334Z,13.8
2022-11-29T07:07:14.122Z,13.2
2022-11-29T07:09:12.880Z,13.4
2022-11-29T07:11:12.708Z,13.0
2022-11-29T07:13:07.465Z,13.4
2022-11-29T07:15:12.315Z,13.6
2022-11-29T07:17:14.544Z,12.7
2022-11-29T07:19:14.873Z,13.4
2022-11-29T07:21:16.038Z,12.6
2022-11-29T07:23:13.260Z,12.7
2022-11-29T07:25:16.391Z,13.2
2022-11-29T07:27:10.417Z,12.9
2022-11-29T07:29:20.431Z,13.3
2022-11-29T07:31:10.284Z,13.0
2022-11-29T07:33:13.049Z,13.3
2022-11-29T07:35:12.156Z,13.1
2022-11-29T07:39:13.371Z,12.5
2022-11-29T07:41:10.276Z,13.3
2022-11-29T07:43:16.627Z,12.9
2022-11-29T07:45:14.060Z,12.3
2022-11-29T07:47:00.108Z,12.2
2022-11-29T07:51:00.249Z,12.1
2022-11-29T07:52:59.414Z,13.4
2022-11-29T07:54:58.708Z,14.2
2022-11-29T07:56:58.604Z,14.4
2022-11-29T07:58:58.273Z,15.2
2022-11-29T08:00:57.852Z,14.6
2022-11-29T08:02:57.042Z,13.8
2022-11-29T08:04:57.342Z,14.0
2022-11-29T08:06:58.337Z,13.4
2022-11-29T08:08:56.743Z,12.7
2022-11-29T08:10:55.668Z,12.4
2022-11-29T08:12:55.916Z,13.4
2022-11-29T08:14:54.911Z,13.1
2022-11-29T08:16:54.604Z,14.0
2022-11-29T08:18:54.338Z,13.6
2022-11-29T08:20:54.040Z,13.8
2022-11-29T08:24:53.603Z,14.6
2022-11-29T08:26:53.437Z,15.0
2022-11-29T08:28:52.516Z,15.5
2022-11-29T08:32:52.395Z,15.6
2022-11-29T08:34:51.463Z,16.1
2022-11-29T08:36:54.771Z,15.4
2022-11-29T08:38:57.148Z,15.8
2022-11-29T08:40:50.454Z,16.5
2022-11-29T08:42:50.009Z,15.2
2022-11-29T08:44:49.757Z,15.9
2022-11-29T08:46:59.332Z,16.1
2022-11-29T08:48:49.527Z,15.0
2022-11-29T08:50:49.233Z,16.1
2022-11-29T08:52:59.194Z,16.0
2022-11-29T08:54:48.217Z,15.1
2022-11-29T08:57:39.508Z,15.8
2022-11-29T08:58:47.191Z,16.5
2022-11-29T09:00:47.109Z,17.8
2022-11-29T09:02:47.039Z,18.5
2022-11-29T09:04:46.425Z,19.4
2022-11-29T09:06:48.550Z,18.4
2022-11-29T09:08:45.483Z,18.5
2022-11-29T09:10:46.505Z,17.1
2022-11-29T09:12:45.386Z,17.8
2022-11-29T09:14:45.423Z,17.2
2022-11-29T09:16:44.472Z,14.9
2022-11-29T09:18:50.017Z,15.3
2022-11-29T09:20:44.591Z,14.8
2022-11-29T09:22:43.032Z,14.5
2022-11-29T09:24:42.972Z,13.6
2022-11-29T09:26:45.940Z,14.3
2022-11-29T09:28:42.025Z,13.9
2022-11-29T09:32:41.444Z,15.1
2022-11-29T09:34:41.237Z,15.3
2022-11-29T09:36:43.113Z,16.0
2022-11-29T09:38:40.915Z,15.3
2022-11-29T09:40:47.769Z,14.9
2022-11-29T09:42:51.385Z,17.0
2022-11-29T09:44:49.081Z,16.6
2022-11-29T09:46:47.565Z,17.4
2022-11-29T09:48:58.084Z,16.9
2022-11-29T09:50:47.057Z,17.1
2022-11-29T09:52:51.190Z,16.6
2022-11-29T09:54:44.184Z,16.3
2022-11-29T09:56:41.540Z,14.7
2022-11-29T09:58:43.352Z,14.8
2022-11-29T10:00:43.977Z,14.5
2022-11-29T10:02:44.403Z,15.3
2022-11-29T10:04:40.685Z,14.7
2022-11-29T10:06:42.847Z,15.7
2022-11-29T10:08:41.190Z,15.2
2022-11-29T10:10:40.915Z,15.6
2022-11-29T10:12:39.170Z,15.9
2022-11-29T10:14:41.705Z,15.1
2022-11-29T10:18:37.508Z,14.3
2022-11-29T10:20:42.407Z,14.4
2022-11-29T10:22:41.633Z,15.3
2022-11-29T10:24:33.518Z,15.0
2022-11-29T10:26:35.372Z,14.4
2022-11-29T10:30:35.318Z,13.7
2022-11-29T10:32:32.249Z,13.5
2022-11-29T10:34:31.714Z,13.4
2022-11-29T10:36:38.407Z,13.8
2022-11-29T10:38:32.033Z,13.2
2022-11-29T10:40:34.192Z,13.3
2022-11-29T10:42:41.247Z,13.0
2022-11-29T10:44:32.276Z,13.2
2022-11-29T10:46:32.704Z,12.7
2022-11-29T10:48:32.121Z,14.1
2022-11-29T10:50:31.574Z,13.3
2022-11-29T10:52:28.466Z,14.0
2022-11-29T10:54:37.218Z,13.2
2022-11-29T10:56:34.578Z,13.5
2022-11-29T10:58:29.600Z,14.4
2022-11-29T11:00:27.554Z,14.0
2022-11-29T11:02:27.949Z,14.6
2022-11-29T11:04:30.529Z,15.3
2022-11-29T11:06:37.558Z,13.4
2022-11-29T11:08:27.554Z,14.7
2022-11-29T11:10:28.676Z,14.4
2022-11-29T11:12:27.726Z,14.7
2022-11-29T11:14:26.712Z,13.6
2022-11-29T11:16:25.850Z,13.2
2022-11-29T11:18:28.274Z,14.0
2022-11-29T11:20:27.205Z,13.0
2022-11-29T11:22:25.526Z,13.3
2022-11-29T11:24:26.176Z,13.2
2022-11-29T11:26:25.050Z,12.7
2022-11-29T11:28:26.134Z,13.4
2022-11-29T11:30:26.063Z,13.5
2022-11-29T11:32:22.787Z,14.0
2022-11-29T11:34:28.909Z,13.6
2022-11-29T11:36:23.130Z,13.1
2022-11-29T11:38:21.175Z,13.8
2022-11-29T11:40:28.016Z,14.2
2022-11-29T11:42:34.035Z,14.4
2022-11-29T11:44:47.214Z,14.2
2022-11-29T11:46:20.083Z,13.3
2022-11-29T11:52:23.635Z,12.5
2022-11-29T11:54:19.635Z,13.3
2022-11-29T11:56:18.935Z,12.9
2022-11-29T11:58:22.010Z,12.7
2022-11-29T12:01:02.367Z,12.4
2022-11-29T12:02:24.809Z,12.5
2022-11-29T12:04:21.517Z,12.2
2022-11-29T12:06:26.532Z,12.6
2022-11-29T12:08:16.939Z,12.5
2022-11-29T12:12:20.377Z,12.4
2022-11-29T12:14:24.793Z,12.8
2022-11-29T12:18:24.253Z,12.9
2022-11-29T12:20:23.231Z,13.1
2022-11-29T12:22:21.592Z,12.4
2022-11-29T12:24:20.855Z,13.5
2022-11-29T12:26:48.908Z,12.4
2022-11-29T12:28:20.377Z,13.2
2022-11-29T12:30:13.999Z,12.9
2022-11-29T12:32:25.754Z,13.9
2022-11-29T12:34:25.572Z,14.8
2022-11-29T12:36:21.378Z,19.5
2022-11-29T12:38:26.303Z,23.3
2022-11-29T12:40:18.977Z,25.9
2022-11-29T12:42:20.769Z,27.7
2022-11-29T12:44:22.891Z,27.8
2022-11-29T12:46:15.299Z,43.9
2022-11-29T12:48:23.102Z,46.5
2022-11-29T12:50:22.993Z,30.3
2022-11-29T12:52:17.487Z,30.8
2022-11-29T12:54:27.934Z,25.8
2022-11-29T12:56:15.610Z,25.2
2022-11-29T12:58:17.886Z,24.1
2022-11-29T13:00:11.285Z,24.6
2022-11-29T13:02:25.368Z,23.8
2022-11-29T13:04:17.840Z,24.8
2022-11-29T13:06:20.439Z,24.1
2022-11-29T13:08:23.688Z,24.2
2022-11-29T13:10:20.922Z,24.8
2022-11-29T13:12:15.861Z,23.1
2022-11-29T13:14:41.447Z,23.6
2022-11-29T13:18:18.867Z,24.0
2022-11-29T13:20:18.793Z,23.2
2022-11-29T13:22:13.275Z,24.4
2022-11-29T13:24:10.496Z,23.3
2022-11-29T13:26:08.952Z,24.3
2022-11-29T13:28:06.916Z,23.6
2022-11-29T13:30:04.898Z,22.1
2022-11-29T13:32:12.961Z,21.9
2022-11-29T13:34:08.433Z,23.1
2022-11-29T13:36:13.214Z,21.8
2022-11-29T13:38:12.536Z,21.1
2022-11-29T13:40:17.644Z,20.6
2022-11-29T13:42:07.848Z,20.7
2022-11-29T13:44:12.194Z,20.4
2022-11-29T13:46:10.424Z,19.9
2022-11-29T13:48:24.924Z,20.4
2022-11-29T13:50:03.823Z,19.9
2022-11-29T13:52:04.519Z,19.1
2022-11-29T13:54:02.608Z,20.0
2022-11-29T13:56:00.859Z,19.2
2022-11-29T13:58:17.410Z,19.8
2022-11-29T13:59:59.339Z,19.5
2022-11-29T14:01:59.251Z,20.8
2022-11-29T14:04:02.676Z,22.8
2022-11-29T14:06:08.459Z,25.2
2022-11-29T14:08:18.205Z,22.1
2022-11-29T14:10:00.945Z,20.6
2022-11-29T14:12:02.762Z,21.7
2022-11-29T14:14:04.118Z,27.3
2022-11-29T14:15:59.931Z,27.0
2022-11-29T14:17:58.597Z,24.2
2022-11-29T14:20:15.961Z,22.8
2022-11-29T14:22:15.651Z,20.7
2022-11-29T14:24:15.354Z,22.8
2022-11-29T14:26:15.013Z,18.3
2022-11-29T14:27:58.564Z,17.8
2022-11-29T14:29:55.123Z,18.8
2022-11-29T14:31:54.866Z,19.5
2022-11-29T14:34:04.846Z,19.2
2022-11-29T14:36:03.597Z,18.9
2022-11-29T14:38:03.671Z,19.3
2022-11-29T14:39:57.422Z,18.3
2022-11-29T14:42:00.724Z,19.9
2022-11-29T14:44:03.853Z,19.3
2022-11-29T14:46:12.070Z,19.1
2022-11-29T14:47:52.572Z,19.7
2022-11-29T14:49:54.583Z,19.6
2022-11-29T14:52:06.045Z,19.2
2022-11-29T14:54:03.869Z,19.6
2022-11-29T14:55:50.770Z,20.0
2022-11-29T14:57:51.991Z,19.4
2022-11-29T14:59:52.385Z,19.2
2022-11-29T15:01:50.283Z,18.3
2022-11-29T15:03:49.892Z,17.8
2022-11-29T15:05:55.775Z,18.5
2022-11-29T15:08:00.393Z,17.5
2022-11-29T15:09:50.342Z,17.2
2022-11-29T15:11:54.202Z,18.4
2022-11-29T15:13:58.513Z,18.0
2022-11-29T15:16:09.102Z,17.7
2022-11-29T15:17:54.089Z,16.4
2022-11-29T15:20:03.827Z,17.1
2022-11-29T15:21:54.492Z,17.4
2022-11-29T15:23:46.521Z,17.7
2022-11-29T15:25:47.964Z,18.0
2022-11-29T15:27:51.763Z,17.1
2022-11-29T15:29:47.438Z,16.9
2022-11-29T15:31:51.232Z,17.3
2022-11-29T15:33:47.533Z,17.4
2022-11-29T15:35:48.866Z,17.2
2022-11-29T15:37:47.797Z,17.0
2022-11-29T15:39:44.650Z,17.6
2022-11-29T15:41:44.250Z,18.2
2022-11-29T15:43:48.323Z,18.6
2022-11-29T15:45:47.206Z,18.5
2022-11-29T15:47:42.804Z,18.1
2022-11-29T15:49:42.953Z,18.5
2022-11-29T15:51:44.687Z,16.5
2022-11-29T15:53:46.344Z,16.4
2022-11-29T15:57:47.069Z,16.3
2022-11-29T15:59:44.968Z,16.4
2022-11-29T16:01:43.108Z,18.7
2022-11-29T16:03:44.859Z,21.2
2022-11-29T16:05:40.375Z,18.9
2022-11-29T16:07:40.933Z,18.8
2022-11-29T16:09:43.338Z,17.3
2022-11-29T16:11:39.965Z,18.9
2022-11-29T16:13:40.796Z,19.5
2022-11-29T16:15:39.996Z,17.6
2022-11-29T16:19:39.754Z,18.4
2022-11-29T16:21:37.641Z,19.0
2022-11-29T16:23:41.263Z,26.8
2022-11-29T16:25:49.266Z,21.8
2022-11-29T16:27:36.701Z,19.0
2022-11-29T16:29:40.740Z,19.2
2022-11-29T16:31:37.355Z,19.5
2022-11-29T16:33:37.407Z,19.6
2022-11-29T16:35:35.768Z,18.4
2022-11-29T16:39:37.595Z,17.9
2022-11-29T16:41:37.628Z,17.5
2022-11-29T16:43:47.433Z,18.1
2022-11-29T16:45:35.999Z,17.8
2022-11-29T16:47:47.468Z,19.0
2022-11-29T16:49:35.323Z,17.8
2022-11-29T16:51:37.807Z,18.4
2022-11-29T16:53:34.063Z,16.9
2022-11-29T16:55:32.044Z,17.3
2022-11-29T16:57:32.043Z,17.9
2022-11-29T16:59:32.012Z,17.0
2022-11-29T17:01:31.070Z,17.2
2022-11-29T17:03:30.927Z,17.5
2022-11-29T17:05:31.233Z,17.9
2022-11-29T17:07:34.435Z,17.0
2022-11-29T17:09:31.625Z,17.7
2022-11-29T17:11:29.408Z,16.2
2022-11-29T17:13:29.035Z,16.6
2022-11-29T17:15:28.945Z,17.1
2022-11-29T17:17:28.421Z,17.3
2022-11-29T17:19:28.642Z,16.8
2022-11-29T17:21:29.123Z,16.7
2022-11-29T17:23:27.411Z,16.5
2022-11-29T17:25:27.002Z,20.3
2022-11-29T17:27:26.946Z,18.3
2022-11-29T17:29:26.568Z,16.3
2022-11-29T17:31:26.551Z,17.8
2022-11-29T17:33:28.965Z,17.1
2022-11-29T17:35:25.598Z,16.4
2022-11-29T17:37:25.115Z,16.3
2022-11-29T17:39:24.648Z,16.8
2022-11-29T17:41:27.588Z,15.6
2022-11-29T17:43:23.986Z,16.6
2022-11-29T17:45:23.499Z,17.1
2022-11-29T17:47:23.158Z,16.0
2022-11-29T17:51:50.661Z,16.6
2022-11-29T17:53:22.168Z,16.7
2022-11-29T17:55:24.694Z,16.1
2022-11-29T17:57:21.938Z,15.9
2022-11-29T17:59:21.644Z,15.6
2022-11-29T18:01:22.572Z,16.0
2022-11-29T18:03:20.291Z,16.4
2022-11-29T18:05:19.901Z,16.3
2022-11-29T18:07:19.539Z,17.1
2022-11-29T18:09:19.173Z,17.3
2022-11-29T18:11:21.699Z,17.5
2022-11-29T18:13:18.728Z,17.9
2022-11-29T18:15:18.020Z,18.4
2022-11-29T18:17:17.892Z,17.4
2022-11-29T18:19:19.462Z,17.8
2022-11-29T18:21:17.340Z,17.9
2022-11-29T18:23:16.882Z,17.8
2022-11-29T18:25:38.345Z,17.6
2022-11-29T18:27:15.902Z,16.9
2022-11-29T18:29:15.529Z,16.2
2022-11-29T18:31:17.892Z,15.8
2022-11-29T18:33:14.547Z,16.0
2022-11-29T18:35:14.400Z,16.1
2022-11-29T18:37:20.068Z,17.4
2022-11-29T18:39:15.591Z,17.3
2022-11-29T18:41:15.142Z,16.3
2022-11-29T18:43:15.225Z,17.5
2022-11-29T18:45:12.635Z,17.2
2022-11-29T18:47:12.003Z,17.9
2022-11-29T18:51:13.824Z,19.2
2022-11-29T18:53:12.745Z,17.9
2022-11-29T18:55:10.241Z,17.7
2022-11-29T18:57:10.011Z,18.5
2022-11-29T18:59:12.657Z,19.2
2022-11-29T19:01:11.524Z,21.5
2022-11-29T19:03:08.774Z,20.4
2022-11-29T19:05:08.707Z,19.5
2022-11-29T19:07:08.339Z,20.4
2022-11-29T19:09:11.641Z,19.1
2022-11-29T19:11:08.908Z,18.0
2022-11-29T19:13:06.651Z,17.4
2022-11-29T19:15:07.035Z,19.2
2022-11-29T19:17:05.908Z,18.1
2022-11-29T19:19:06.335Z,18.5
2022-11-29T19:21:05.930Z,18.3
2022-11-29T19:25:04.979Z,19.3
2022-11-29T19:27:04.262Z,20.2
2022-11-29T19:29:03.875Z,19.1
2022-11-29T19:31:04.599Z,18.1
2022-11-29T19:33:03.657Z,20.3
2022-11-29T19:35:02.425Z,20.1
2022-11-29T19:37:02.212Z,20.0
2022-11-29T19:39:02.227Z,21.0
2022-11-29T19:41:06.318Z,20.1
2022-11-29T19:43:02.303Z,18.9
2022-11-29T19:45:16.519Z,19.6
2022-11-29T19:46:59.926Z,19.4
2022-11-29T19:49:00.535Z,18.9
2022-11-29T19:50:59.651Z,18.0
2022-11-29T19:52:59.198Z,18.9
2022-11-29T19:54:59.135Z,19.7
2022-11-29T19:56:58.858Z,19.4
2022-11-29T19:58:58.942Z,19.1
2022-11-29T20:01:04.053Z,19.0
2022-11-29T20:02:57.048Z,18.2
2022-11-29T20:04:56.519Z,18.7
2022-11-29T20:06:57.076Z,22.6
2022-11-29T20:08:56.252Z,21.2
2022-11-29T20:10:55.809Z,21.3
2022-11-29T20:12:55.166Z,22.3
2022-11-29T20:14:54.941Z,23.5
2022-11-29T20:16:54.683Z,23.4
2022-11-29T20:18:55.512Z,22.0
2022-11-29T20:20:53.465Z,21.6
2022-11-29T20:22:53.049Z,20.6
2022-11-29T20:26:52.359Z,19.8
2022-11-29T20:28:52.363Z,20.4
2022-11-29T20:30:51.892Z,20.0
2022-11-29T20:32:51.492Z,22.0
2022-11-29T20:34:51.359Z,22.2
2022-11-29T20:37:07.066Z,23.3
2022-11-29T20:38:57.528Z,24.0
2022-11-29T20:41:02.337Z,26.5
2022-11-29T20:43:05.393Z,33.6
2022-11-29T20:44:52.793Z,35.0
2022-11-29T20:46:48.913Z,41.0
2022-11-29T20:48:50.205Z,35.6
2022-11-29T20:50:53.142Z,36.6
2022-11-29T20:52:55.320Z,35.5
2022-11-29T20:54:47.015Z,35.4
2022-11-29T20:56:46.778Z,37.5
2022-11-29T20:58:46.791Z,40.0
2022-11-29T21:00:47.056Z,37.8
2022-11-29T21:02:46.384Z,37.7
2022-11-29T21:04:45.938Z,33.8
2022-11-29T21:06:44.842Z,30.0
2022-11-29T21:08:44.620Z,27.4
2022-11-29T21:10:44.679Z,26.5
2022-11-29T21:12:44.997Z,27.6
2022-11-29T21:14:44.059Z,27.1
2022-11-29T21:16:43.244Z,25.9
2022-11-29T21:18:43.032Z,27.3
2022-11-29T21:20:44.017Z,23.6
2022-11-29T21:22:49.698Z,27.0
2022-11-29T21:24:51.681Z,26.7
2022-11-29T21:26:49.127Z,27.4
2022-11-29T21:28:51.504Z,30.2
2022-11-29T21:30:42.452Z,26.0
2022-11-29T21:32:41.040Z,27.3
2022-11-29T21:34:39.912Z,28.8
2022-11-29T21:36:39.974Z,27.1
2022-11-29T21:38:39.332Z,25.0
2022-11-29T21:40:38.665Z,26.0
2022-11-29T21:42:38.859Z,29.4
2022-11-29T21:44:38.234Z,29.2
2022-11-29T21:46:37.691Z,31.9
2022-11-29T21:48:37.249Z,29.4
2022-11-29T21:50:37.100Z,29.3
2022-11-29T21:52:36.908Z,27.3
2022-11-29T21:54:36.456Z,30.6
2022-11-29T21:56:35.744Z,30.4
2022-11-29T21:58:37.397Z,28.4
2022-11-29T22:00:37.563Z,29.0
2022-11-29T22:02:34.675Z,34.3
2022-11-29T22:04:34.256Z,31.2
2022-11-29T22:06:35.730Z,30.1
2022-11-29T22:08:34.597Z,29.8
2022-11-29T22:10:33.166Z,30.8
2022-11-29T22:12:34.572Z,31.1
2022-11-29T22:14:32.582Z,31.9
2022-11-29T22:16:32.451Z,28.6
2022-11-29T22:18:32.059Z,31.7
2022-11-29T22:20:31.301Z,28.1
2022-11-29T22:22:31.022Z,28.6
2022-11-29T22:24:32.286Z,30.6
2022-11-29T22:26:30.176Z,28.6
2022-11-29T22:28:29.759Z,29.0
2022-11-29T22:30:29.377Z,26.6
2022-11-29T22:32:29.098Z,27.1
2022-11-29T22:34:28.775Z,26.7
2022-11-29T22:36:28.482Z,27.6
2022-11-29T22:38:28.624Z,29.2
2022-11-29T22:40:27.943Z,28.4
2022-11-29T22:42:27.861Z,27.1
2022-11-29T22:46:27.676Z,26.4
2022-11-29T22:48:26.200Z,26.5
2022-11-29T22:50:25.880Z,28.7
2022-11-29T22:52:26.833Z,27.3
2022-11-29T22:54:25.028Z,27.8
2022-11-29T22:56:26.322Z,27.2
2022-11-29T22:58:24.407Z,27.3
2022-11-29T23:02:23.734Z,26.6
2022-11-29T23:06:24.940Z,30.6
2022-11-29T23:08:24.315Z,27.9
2022-11-29T23:10:22.459Z,25.8
2022-11-29T23:12:22.342Z,25.0
2022-11-29T23:14:23.813Z,25.8
2022-11-29T23:16:23.212Z,27.0
2022-11-29T23:18:20.757Z,25.9
2022-11-29T23:20:20.470Z,26.1
2022-11-29T23:22:20.139Z,27.5
2022-11-29T23:24:19.695Z,25.7
2022-11-29T23:26:22.010Z,26.0
2022-11-29T23:30:18.924Z,27.1
2022-11-29T23:32:18.432Z,27.5
2022-11-29T23:34:18.905Z,27.0
2022-11-29T23:36:18.208Z,27.9
2022-11-29T23:38:17.907Z,29.4
2022-11-29T23:40:16.798Z,26.2
2022-11-29T23:42:16.433Z,26.7
2022-11-29T23:44:16.110Z,27.5
2022-11-29T23:46:18.357Z,26.2
2022-11-29T23:48:15.524Z,26.4
2022-11-29T23:50:15.087Z,27.1
2022-11-29T23:52:15.102Z,27.3
2022-11-29T23:54:14.300Z,27.0
2022-11-29T23:56:15.553Z,26.9
2022-11-29T23:58:14.171Z,27.9
